This is the latest recevied weather packets stored in our database for station/object GW1699. If no packets are shown the sender has not sent any weather packets the latest 10 day(s).
| Time | Temp. | Humidity | Pressure | Rain* | Wind** | Luminosity | Snow |
|---|---|---|---|---|---|---|---|
| 1778024727 | 19.44° C | 64% | 1007.7 hPa | 0 mm | - | - | - |
| 1778019674 | 23.33° C | 57% | 1007.7 hPa | 0 mm | - | - | - |
| 1778018261 | 23.33° C | 57% | 1008.1 hPa | 0 mm | - | - | - |
| 1778017909 | 22.78° C | 44% | 1008.4 hPa | 0 mm | - | - | - |
| 1778017181 | 23.33° C | 47% | 1008.4 hPa | 0 mm | - | - | - |
| 1778016462 | 23.33° C | 44% | 1008.8 hPa | 0 mm | - | - | - |
| 1778011780 | 23.33° C | 43% | 1008.8 hPa | 0 mm | - | - | - |
| 1778008172 | 23.33° C | 44% | 1009.1 hPa | 0 mm | - | - | - |
| 1778007816 | 23.89° C | 46% | 1009.1 hPa | 0 mm | - | - | - |
| 1778003485 | 24.44° C | 46% | 1009.1 hPa | 0 mm | - | - | - |
| 1778003125 | 23.89° C | 45% | 1009.1 hPa | 0 mm | - | - | - |
| 1778000979 | 23.89° C | 45% | 1009.8 hPa | 0 mm | - | - | - |
| 1778000608 | 23.89° C | 44% | 1009.8 hPa | 0 mm | - | - | - |
| 1777999512 | 23.89° C | 45% | 1009.8 hPa | 0 mm | - | - | - |
| 1777998439 | 23.33° C | 47% | 1009.8 hPa | 0 mm | - | - | - |
| 1777998108 | 23.33° C | 49% | 1009.8 hPa | 0 mm | - | - | - |
| 1777997735 | 23.33° C | 46% | 1010.1 hPa | 0 mm | - | - | - |
| 1777993411 | 22.22° C | 50% | 1010.4 hPa | 0 mm | - | - | - |
| 1777992708 | 21.67° C | 50% | 1010.4 hPa | 0 mm | - | - | - |
| 1777991952 | 21.67° C | 51% | 1010.4 hPa | 0 mm | - | - | - |
| 1777990542 | 21.67° C | 52% | 1010.4 hPa | 0 mm | - | - | - |
| 1777988373 | 20.56° C | 54% | 1010.8 hPa | 0 mm | - | - | - |
| 1777987651 | 21.11° C | 57% | 1010.8 hPa | 0 mm | - | - | - |
| 1777981165 | 15.56° C | 81% | 1010.8 hPa | 0 mm | - | - | - |
| 1777980095 | 14.44° C | 83% | 1010.8 hPa | 0 mm | - | - | - |
* Rain since midnight (hover to see other rain measurements)
** Current wind speed in m/s (hover to see current wind gust speed)